Time;durP1;ratioP1;P1;durP2;ratioP2;P2;SDS_P1;SDS_P2;PMS_P1;PMS_P2;Temp;Humidity;BMP_temperature;BMP_pressure;BME280_temperature;BME280_humidity;BME280_pressure;Samples;Min_cycle;Max_cycle;Signal;HPM_P1;HPM_P2
2023/08/07 00:00:42;;;;;;;27.77;20.33;;;;;;;;;;6069349;29;20491;-78
2023/08/07 00:03:47;;;;;;;26.93;23.27;;;;;;;;;;6029588;29;1196115;-77
2023/08/07 00:06:51;;;;;;;26.13;21.80;;;;;;;;;;6070891;29;20485;-77
2023/08/07 00:09:55;;;;;;;29.13;23.02;;;;;;;;;;6067377;29;20470;-77
2023/08/07 00:12:58;;;;;;;27.83;22.90;;;;;;;;;;6047479;29;20786;-77
2023/08/07 00:16:04;;;;;;;24.27;21.40;;;;;;;;;;6046524;29;20473;-78
2023/08/07 00:19:08;;;;;;;24.88;21.77;;;;;;;;;;6047147;29;20486;-78
2023/08/07 00:22:11;;;;;;;34.08;22.95;;;;;;;;;;6047833;29;20478;-77
2023/08/07 00:25:15;;;;;;;24.98;20.00;;;;;;;;;;6046823;29;20478;-78
2023/08/07 00:28:19;;;;;;;31.75;21.27;;;;;;;;;;6047521;29;20764;-79
2023/08/07 00:31:24;;;;;;;28.33;22.00;;;;;;;;;;6049092;29;20497;-76
2023/08/07 00:34:29;;;;;;;25.00;21.17;;;;;;;;;;6059209;29;20587;-77
2023/08/07 00:37:33;;;;;;;28.95;21.67;;;;;;;;;;6069379;29;20731;-79
2023/08/07 00:40:39;;;;;;;27.08;22.33;;;;;;;;;;6068813;29;20727;-77
2023/08/07 00:43:42;;;;;;;23.70;20.65;;;;;;;;;;6070081;29;20500;-78
2023/08/07 00:46:48;;;;;;;23.80;21.30;;;;;;;;;;6069005;29;20491;-79
2023/08/07 00:49:52;;;;;;;20.17;18.10;;;;;;;;;;6068280;29;20487;-79
2023/08/07 00:52:56;;;;;;;23.25;20.10;;;;;;;;;;6068429;29;20484;-78
2023/08/07 00:56:02;;;;;;;22.63;19.70;;;;;;;;;;6068534;29;20492;-76
2023/08/07 00:59:06;;;;;;;22.50;18.45;;;;;;;;;;6069023;29;20496;-79
2023/08/07 01:02:11;;;;;;;22.92;20.52;;;;;;;;;;6052319;29;20512;-78
2023/08/07 01:05:16;;;;;;;27.27;20.65;;;;;;;;;;6069499;29;20495;-78
2023/08/07 01:08:20;;;;;;;25.92;21.77;;;;;;;;;;6068655;29;20760;-78
2023/08/07 01:11:31;;;;;;;25.40;21.02;;;;;;;;;;6055345;29;20493;-79
2023/08/07 01:14:39;;;;;;;27.80;21.00;;;;;;;;;;6046822;29;20485;-79
2023/08/07 01:17:45;;;;;;;27.63;21.13;;;;;;;;;;6047100;29;20802;-79
2023/08/07 01:20:49;;;;;;;26.27;20.70;;;;;;;;;;6046163;29;20485;-77
2023/08/07 01:23:54;;;;;;;23.52;18.85;;;;;;;;;;6046377;29;20484;-79
2023/08/07 01:26:59;;;;;;;29.05;20.55;;;;;;;;;;6046437;29;20541;-78
2023/08/07 01:30:14;;;;;;;24.30;19.77;;;;;;;;;;6046455;29;20797;-78
2023/08/07 01:33:23;;;;;;;27.33;19.52;;;;;;;;;;6032697;29;20468;-79
2023/08/07 01:36:28;;;;;;;24.90;18.67;;;;;;;;;;6067698;29;20737;-78
2023/08/07 01:39:34;;;;;;;24.92;18.83;;;;;;;;;;6068073;29;20525;-80
2023/08/07 01:42:39;;;;;;;25.45;18.40;;;;;;;;;;6069415;29;20471;-80
2023/08/07 01:45:44;;;;;;;23.88;19.25;;;;;;;;;;6067653;29;20504;-78
2023/08/07 01:48:48;;;;;;;21.63;17.48;;;;;;;;;;6067233;29;20456;-79
2023/08/07 01:51:52;;;;;;;24.02;19.25;;;;;;;;;;6067777;29;20648;-78
2023/08/07 01:54:57;;;;;;;26.63;18.77;;;;;;;;;;6068495;29;20722;-78
2023/08/07 01:58:02;;;;;;;23.95;18.65;;;;;;;;;;6068147;29;20480;-78
2023/08/07 02:01:06;;;;;;;19.75;16.25;;;;;;;;;;6067569;29;20765;-78
2023/08/07 02:04:10;;;;;;;22.17;17.83;;;;;;;;;;6068392;29;20476;-78
2023/08/07 02:07:13;;;;;;;17.67;15.80;;;;;;;;;;6068904;29;20476;-79
2023/08/07 02:10:19;;;;;;;23.27;18.35;;;;;;;;;;6060431;29;20477;-78
2023/08/07 02:13:23;;;;;;;23.90;18.05;;;;;;;;;;6045215;29;20481;-77
2023/08/07 02:16:27;;;;;;;19.55;17.00;;;;;;;;;;6044565;29;20486;-80
2023/08/07 02:19:31;;;;;;;21.70;17.60;;;;;;;;;;6043554;29;20662;-78
2023/08/07 02:22:35;;;;;;;18.35;16.05;;;;;;;;;;6045077;29;20489;-79
2023/08/07 02:25:40;;;;;;;18.67;16.67;;;;;;;;;;6043837;29;20762;-80
2023/08/07 02:28:44;;;;;;;22.03;17.47;;;;;;;;;;6042690;29;20486;-77
2023/08/07 02:31:48;;;;;;;19.65;16.33;;;;;;;;;;6044847;29;20481;-79
2023/08/07 02:34:52;;;;;;;22.27;16.73;;;;;;;;;;6060821;29;20487;-78
2023/08/07 02:37:56;;;;;;;22.52;15.63;;;;;;;;;;6067429;29;20476;-78
2023/08/07 02:41:02;;;;;;;20.33;17.08;;;;;;;;;;6066464;29;20496;-78
2023/08/07 02:44:06;;;;;;;20.80;16.40;;;;;;;;;;6066014;29;20565;-78
2023/08/07 02:47:10;;;;;;;17.30;15.07;;;;;;;;;;6068029;29;20688;-78
2023/08/07 02:50:14;;;;;;;21.20;16.10;;;;;;;;;;6067375;29;20485;-78
2023/08/07 02:53:18;;;;;;;22.08;16.60;;;;;;;;;;6067220;29;20456;-80
2023/08/07 02:56:23;;;;;;;17.20;15.38;;;;;;;;;;6068213;29;20487;-79
2023/08/07 02:59:27;;;;;;;17.45;15.40;;;;;;;;;;6068413;29;20476;-79
2023/08/07 03:02:31;;;;;;;15.95;14.27;;;;;;;;;;6047532;29;20623;-78
2023/08/07 03:05:35;;;;;;;15.93;14.10;;;;;;;;;;6049945;29;20477;-78
2023/08/07 03:08:39;;;;;;;15.18;13.68;;;;;;;;;;6061559;29;20789;-78
2023/08/07 03:11:44;;;;;;;16.27;13.00;;;;;;;;;;6058964;29;20486;-78
2023/08/07 03:14:49;;;;;;;14.60;13.20;;;;;;;;;;6043951;29;20469;-78
2023/08/07 03:17:52;;;;;;;15.65;14.00;;;;;;;;;;6043235;29;20489;-78
2023/08/07 03:20:57;;;;;;;15.52;13.98;;;;;;;;;;6055228;29;20496;-78
2023/08/07 03:24:00;;;;;;;15.82;14.25;;;;;;;;;;6065642;29;20487;-77
2023/08/07 03:27:06;;;;;;;14.67;13.40;;;;;;;;;;6065639;29;20559;-78
2023/08/07 03:30:12;;;;;;;14.38;12.98;;;;;;;;;;6065470;29;20480;-78
2023/08/07 03:33:15;;;;;;;14.50;13.20;;;;;;;;;;6062864;29;20485;-78
2023/08/07 03:36:19;;;;;;;13.68;12.30;;;;;;;;;;6043560;29;20490;-78
2023/08/07 03:39:24;;;;;;;13.37;12.00;;;;;;;;;;6067356;29;20491;-79
2023/08/07 03:42:30;;;;;;;13.55;12.30;;;;;;;;;;6066286;29;20509;-77
2023/08/07 03:45:34;;;;;;;12.47;11.33;;;;;;;;;;6065482;29;20620;-77
2023/08/07 03:48:39;;;;;;;12.40;11.40;;;;;;;;;;6065855;29;20468;-77
2023/08/07 03:51:44;;;;;;;11.82;10.73;;;;;;;;;;6065060;29;20496;-78
2023/08/07 03:54:48;;;;;;;12.57;11.40;;;;;;;;;;6066736;29;20472;-79
2023/08/07 03:57:53;;;;;;;12.50;11.38;;;;;;;;;;6064849;29;20471;-79
2023/08/07 04:00:57;;;;;;;12.23;11.30;;;;;;;;;;6064590;29;20460;-78
2023/08/07 04:04:02;;;;;;;11.85;10.82;;;;;;;;;;6065855;29;20496;-78
2023/08/07 04:07:07;;;;;;;12.60;11.60;;;;;;;;;;6049820;29;20491;-78
2023/08/07 04:10:11;;;;;;;13.80;12.50;;;;;;;;;;6066103;29;20465;-79
2023/08/07 04:13:16;;;;;;;10.75;9.95;;;;;;;;;;6046520;29;20302;-79
2023/08/07 04:16:20;;;;;;;11.52;10.48;;;;;;;;;;6044754;29;20291;-78
2023/08/07 04:19:24;;;;;;;14.38;10.32;;;;;;;;;;6044449;29;20294;-78
2023/08/07 04:22:28;;;;;;;11.55;10.40;;;;;;;;;;6044971;29;20313;-78
2023/08/07 04:25:32;;;;;;;12.63;11.32;;;;;;;;;;6043068;29;20377;-77
2023/08/07 04:28:37;;;;;;;16.27;14.38;;;;;;;;;;6042487;29;20474;-79
2023/08/07 04:31:41;;;;;;;16.23;14.52;;;;;;;;;;6042664;29;20494;-78
2023/08/07 04:34:45;;;;;;;17.15;15.07;;;;;;;;;;6046527;29;20478;-78
2023/08/07 04:37:49;;;;;;;14.93;13.43;;;;;;;;;;6031026;29;20493;-78
2023/08/07 04:40:53;;;;;;;16.95;15.20;;;;;;;;;;6047038;29;20489;-79
2023/08/07 04:43:58;;;;;;;16.60;14.83;;;;;;;;;;6047148;29;20490;-79
2023/08/07 04:47:02;;;;;;;20.05;17.85;;;;;;;;;;6047491;29;20489;-78
2023/08/07 04:50:06;;;;;;;20.88;18.63;;;;;;;;;;6046952;29;20490;-78
2023/08/07 04:53:10;;;;;;;22.48;18.90;;;;;;;;;;6045943;29;20517;-78
2023/08/07 04:56:14;;;;;;;25.63;20.17;;;;;;;;;;6046571;29;20623;-78
2023/08/07 04:59:19;;;;;;;23.80;19.63;;;;;;;;;;6044925;29;20473;-79
2023/08/07 05:02:23;;;;;;;22.50;20.15;;;;;;;;;;6046972;29;20539;-79
2023/08/07 05:05:28;;;;;;;26.17;22.65;;;;;;;;;;6046529;29;20478;-78
2023/08/07 05:08:31;;;;;;;25.55;21.08;;;;;;;;;;6047350;29;20513;-77
2023/08/07 05:11:35;;;;;;;29.38;22.05;;;;;;;;;;6055334;29;20480;-78
2023/08/07 05:14:40;;;;;;;29.95;23.33;;;;;;;;;;6069578;29;20468;-78
2023/08/07 05:17:44;;;;;;;32.35;24.13;;;;;;;;;;6069494;29;20476;-78
2023/08/07 05:20:48;;;;;;;26.73;21.23;;;;;;;;;;6069186;29;20484;-77
2023/08/07 05:23:53;;;;;;;29.70;23.02;;;;;;;;;;6069143;29;20661;-77
2023/08/07 05:26:56;;;;;;;25.47;22.83;;;;;;;;;;6071972;29;20491;-77
2023/08/07 05:30:02;;;;;;;30.40;23.65;;;;;;;;;;6069122;29;20484;-77
2023/08/07 05:33:06;;;;;;;27.80;23.67;;;;;;;;;;6067089;29;20497;-78
2023/08/07 05:36:10;;;;;;;24.77;21.67;;;;;;;;;;6046457;29;20482;-77
2023/08/07 05:39:13;;;;;;;31.33;24.63;;;;;;;;;;6045756;29;20458;-77
2023/08/07 05:42:17;;;;;;;25.85;22.98;;;;;;;;;;6046022;29;20510;-77
2023/08/07 05:45:23;;;;;;;28.52;23.70;;;;;;;;;;6044647;29;20485;-78
2023/08/07 05:48:27;;;;;;;30.15;22.70;;;;;;;;;;6045858;29;20470;-78
2023/08/07 05:51:31;;;;;;;30.55;23.00;;;;;;;;;;6044600;29;20477;-78
2023/08/07 05:54:35;;;;;;;26.73;21.90;;;;;;;;;;6045593;29;20499;-78
2023/08/07 05:57:39;;;;;;;26.17;23.37;;;;;;;;;;6044860;29;20501;-78
2023/08/07 06:00:44;;;;;;;29.92;23.17;;;;;;;;;;6045536;29;20482;-78
2023/08/07 06:03:48;;;;;;;28.75;23.05;;;;;;;;;;6045343;29;20738;-78
2023/08/07 06:06:52;;;;;;;30.33;23.23;;;;;;;;;;6043174;29;20478;-77
2023/08/07 06:09:56;;;;;;;28.17;22.63;;;;;;;;;;6045721;29;20465;-78
2023/08/07 06:13:00;;;;;;;25.52;21.42;;;;;;;;;;6066804;29;20464;-77
2023/08/07 06:16:06;;;;;;;24.77;20.77;;;;;;;;;;6071070;29;20548;-77
2023/08/07 06:19:10;;;;;;;25.27;22.58;;;;;;;;;;6067871;29;20468;-78
2023/08/07 06:22:32;;;;;;;24.90;22.20;;;;;;;;;;6067613;29;20472;-78
2023/08/07 06:25:36;;;;;;;30.73;22.65;;;;;;;;;;6067454;29;20554;-78
2023/08/07 06:28:40;;;;;;;30.13;23.07;;;;;;;;;;6068338;29;20491;-77
2023/08/07 06:31:45;;;;;;;33.47;22.33;;;;;;;;;;6067326;29;20479;-78
2023/08/07 06:34:49;;;;;;;27.47;22.23;;;;;;;;;;6052279;29;20494;-78
2023/08/07 06:37:53;;;;;;;24.83;22.10;;;;;;;;;;6045302;29;20482;-78
2023/08/07 06:40:56;;;;;;;26.90;22.52;;;;;;;;;;6044708;29;20478;-78
2023/08/07 06:44:00;;;;;;;22.98;19.15;;;;;;;;;;6044212;29;20481;-78
2023/08/07 06:47:06;;;;;;;31.13;22.27;;;;;;;;;;6044435;29;20481;-78
2023/08/07 06:50:14;;;;;;;51.00;25.15;;;;;;;;;;6043839;29;20473;-79
2023/08/07 06:53:18;;;;;;;31.92;22.95;;;;;;;;;;6044336;29;20541;-79
2023/08/07 06:56:22;;;;;;;26.50;23.08;;;;;;;;;;6044059;29;20477;-79
2023/08/07 06:59:26;;;;;;;23.50;19.98;;;;;;;;;;6043799;29;20473;-79
2023/08/07 07:02:32;;;;;;;27.50;21.88;;;;;;;;;;6044154;29;20506;-79
2023/08/07 07:05:35;;;;;;;28.10;20.90;;;;;;;;;;6043861;29;20488;-82
2023/08/07 07:08:40;;;;;;;28.48;18.98;;;;;;;;;;6046506;29;20472;-82
2023/08/07 07:11:44;;;;;;;28.33;18.85;;;;;;;;;;6055895;29;20641;-82
2023/08/07 07:14:48;;;;;;;24.65;20.63;;;;;;;;;;6067401;29;20516;-82
2023/08/07 07:17:53;;;;;;;27.10;21.97;;;;;;;;;;6067100;29;20832;-82
2023/08/07 07:21:00;;;;;;;26.85;21.08;;;;;;;;;;6066900;29;20488;-82
2023/08/07 07:24:06;;;;;;;22.48;19.38;;;;;;;;;;6067828;29;20313;-82
2023/08/07 07:27:10;;;;;;;23.98;18.48;;;;;;;;;;6068741;29;20297;-80
2023/08/07 07:30:13;;;;;;;17.98;15.55;;;;;;;;;;6067972;29;20392;-80
2023/08/07 07:33:19;;;;;;;23.23;18.33;;;;;;;;;;6064664;29;20301;-80
2023/08/07 07:36:22;;;;;;;20.67;18.30;;;;;;;;;;6045296;29;20301;-82
2023/08/07 07:39:26;;;;;;;20.40;16.23;;;;;;;;;;6045219;29;20539;-82
2023/08/07 07:42:30;;;;;;;22.52;17.90;;;;;;;;;;6043402;29;20274;-83
2023/08/07 07:45:35;;;;;;;38.00;19.42;;;;;;;;;;6045434;29;20305;-83
2023/08/07 07:48:42;;;;;;;24.15;16.80;;;;;;;;;;6045697;29;20325;-83
2023/08/07 07:51:46;;;;;;;20.73;17.27;;;;;;;;;;6045508;29;20306;-82
2023/08/07 07:54:50;;;;;;;22.52;17.52;;;;;;;;;;6045861;29;20302;-83
2023/08/07 07:57:55;;;;;;;29.73;17.27;;;;;;;;;;6049426;29;20297;-83
2023/08/07 08:00:58;;;;;;;22.40;17.25;;;;;;;;;;6048796;29;20480;-83
2023/08/07 08:04:04;;;;;;;24.27;17.20;;;;;;;;;;6042776;29;20294;-84
2023/08/07 08:07:08;;;;;;;19.42;17.50;;;;;;;;;;6030240;29;20305;-83
2023/08/07 08:10:13;;;;;;;21.35;17.48;;;;;;;;;;6026896;29;20299;-83
2023/08/07 08:13:17;;;;;;;20.08;16.65;;;;;;;;;;6049074;29;20301;-82
2023/08/07 08:16:21;;;;;;;23.95;19.27;;;;;;;;;;6048562;29;20458;-83
2023/08/07 08:19:26;;;;;;;17.70;15.98;;;;;;;;;;6051310;29;20309;-83
2023/08/07 08:22:38;;;;;;;20.25;17.48;;;;;;;;;;6050198;29;20302;-84
2023/08/07 08:25:42;;;;;;;17.13;15.45;;;;;;;;;;6063340;29;20337;-84
2023/08/07 08:28:46;;;;;;;21.85;17.23;;;;;;;;;;6064112;29;20441;-83
2023/08/07 08:31:52;;;;;;;20.85;17.80;;;;;;;;;;6049135;29;20586;-84
2023/08/07 08:34:59;;;;;;;21.40;17.13;;;;;;;;;;6031019;29;20434;-82
2023/08/07 08:38:03;;;;;;;18.77;15.88;;;;;;;;;;6028516;29;20297;-84
2023/08/07 08:41:09;;;;;;;21.50;17.70;;;;;;;;;;6026320;29;20394;-83
2023/08/07 08:44:13;;;;;;;22.40;16.60;;;;;;;;;;6025413;29;20334;-84
2023/08/07 08:47:17;;;;;;;25.15;17.40;;;;;;;;;;6026170;29;20396;-83
2023/08/07 08:50:23;;;;;;;21.85;17.27;;;;;;;;;;6025626;29;20320;-84
2023/08/07 08:53:27;;;;;;;22.85;17.80;;;;;;;;;;6025600;29;20319;-82
2023/08/07 08:56:32;;;;;;;18.77;16.88;;;;;;;;;;6025302;29;20578;-82
2023/08/07 08:59:35;;;;;;;26.02;18.80;;;;;;;;;;6026504;29;20306;-83
2023/08/07 09:02:39;;;;;;;22.45;17.67;;;;;;;;;;6041057;29;20306;-82
2023/08/07 09:05:45;;;;;;;26.15;16.63;;;;;;;;;;6060066;29;20330;-81
2023/08/07 09:08:50;;;;;;;20.77;17.00;;;;;;;;;;6061790;29;20294;-81
2023/08/07 09:11:56;;;;;;;18.88;15.13;;;;;;;;;;6066914;29;20297;-83
2023/08/07 09:15:00;;;;;;;19.70;16.40;;;;;;;;;;6072601;29;20546;-82
2023/08/07 09:18:08;;;;;;;19.23;16.48;;;;;;;;;;6071595;29;20300;-83
2023/08/07 09:21:16;;;;;;;26.70;15.75;;;;;;;;;;6071576;29;20292;-82
2023/08/07 09:24:22;;;;;;;25.00;16.52;;;;;;;;;;6072331;29;20305;-83
2023/08/07 09:27:26;;;;;;;23.73;15.82;;;;;;;;;;6074059;29;20598;-82
2023/08/07 09:30:30;;;;;;;23.23;16.35;;;;;;;;;;6074078;29;20300;-82
2023/08/07 09:33:34;;;;;;;20.35;15.07;;;;;;;;;;6066274;29;20323;-82
2023/08/07 09:36:39;;;;;;;18.92;15.93;;;;;;;;;;6047908;29;20434;-82
2023/08/07 09:39:43;;;;;;;18.55;16.30;;;;;;;;;;6047739;29;20313;-82
2023/08/07 09:42:51;;;;;;;26.23;16.73;;;;;;;;;;6047962;29;20315;-83
2023/08/07 09:46:03;;;;;;;22.67;16.63;;;;;;;;;;6047672;29;20302;-82
2023/08/07 09:49:07;;;;;;;17.80;16.13;;;;;;;;;;6047506;29;20298;-82
2023/08/07 09:52:15;;;;;;;23.70;16.98;;;;;;;;;;6046700;29;20321;-81
2023/08/07 09:55:19;;;;;;;12.73;11.52;;;;;;;;;;6047509;29;20485;-82
2023/08/07 09:58:23;;;;;;;19.50;17.08;;;;;;;;;;6047670;29;20297;-83
2023/08/07 10:01:27;;;;;;;17.77;15.23;;;;;;;;;;6045401;29;20487;-82
2023/08/07 10:04:32;;;;;;;18.10;16.33;;;;;;;;;;6046443;29;20310;-83
2023/08/07 10:07:38;;;;;;;20.77;15.43;;;;;;;;;;6047271;29;20293;-83
2023/08/07 10:10:41;;;;;;;18.58;16.73;;;;;;;;;;6048802;29;20298;-83
2023/08/07 10:13:46;;;;;;;26.08;16.98;;;;;;;;;;6070318;29;20296;-82
2023/08/07 10:16:51;;;;;;;18.77;16.67;;;;;;;;;;6069173;29;20297;-83
2023/08/07 10:19:55;;;;;;;18.38;16.58;;;;;;;;;;6072246;29;20309;-83
2023/08/07 10:23:02;;;;;;;16.73;14.95;;;;;;;;;;6070077;29;20311;-83
2023/08/07 10:26:07;;;;;;;24.08;17.35;;;;;;;;;;6069273;29;20308;-82
2023/08/07 10:29:14;;;;;;;23.92;16.77;;;;;;;;;;6068149;29;20289;-82
2023/08/07 10:32:21;;;;;;;19.17;16.30;;;;;;;;;;6069188;29;20305;-82
2023/08/07 10:35:25;;;;;;;21.27;17.33;;;;;;;;;;6040107;29;20314;-82
2023/08/07 10:38:31;;;;;;;19.90;16.50;;;;;;;;;;6023771;29;20455;-82
2023/08/07 10:41:39;;;;;;;24.98;16.40;;;;;;;;;;6023430;29;20298;-82
2023/08/07 10:44:50;;;;;;;19.85;16.00;;;;;;;;;;6023846;29;20307;-83
2023/08/07 10:48:04;;;;;;;22.23;16.08;;;;;;;;;;6024543;29;20306;-83
2023/08/07 10:51:08;;;;;;;21.92;16.92;;;;;;;;;;6043357;29;20294;-83
2023/08/07 10:54:13;;;;;;;22.13;14.85;;;;;;;;;;6052814;29;20290;-83
2023/08/07 10:57:18;;;;;;;21.10;16.65;;;;;;;;;;6054942;29;20301;-83
2023/08/07 11:00:27;;;;;;;16.42;14.93;;;;;;;;;;6045100;29;20297;-82
2023/08/07 11:03:31;;;;;;;19.98;16.42;;;;;;;;;;6045147;29;20306;-80
2023/08/07 11:06:35;;;;;;;19.23;16.05;;;;;;;;;;6047489;29;20302;-81
2023/08/07 11:09:40;;;;;;;18.30;14.77;;;;;;;;;;6045572;29;20550;-81
2023/08/07 11:12:44;;;;;;;22.80;16.98;;;;;;;;;;6063804;29;20249;-82
2023/08/07 11:15:48;;;;;;;19.50;16.25;;;;;;;;;;6068400;29;20304;-82
2023/08/07 11:18:52;;;;;;;24.90;16.25;;;;;;;;;;6067497;29;20297;-82
2023/08/07 11:21:58;;;;;;;18.80;15.80;;;;;;;;;;6069208;29;20289;-81
2023/08/07 11:25:04;;;;;;;21.42;15.60;;;;;;;;;;6068857;29;20301;-81
2023/08/07 11:28:09;;;;;;;25.10;16.02;;;;;;;;;;6068381;29;20298;-82
2023/08/07 11:31:13;;;;;;;23.08;16.33;;;;;;;;;;6068623;29;20297;-81
2023/08/07 11:34:18;;;;;;;24.10;16.77;;;;;;;;;;6056779;29;20293;-82
2023/08/07 11:37:22;;;;;;;16.88;15.20;;;;;;;;;;6045642;29;20314;-81
2023/08/07 11:40:27;;;;;;;22.80;16.92;;;;;;;;;;6045212;29;20593;-83
2023/08/07 11:43:31;;;;;;;20.60;15.98;;;;;;;;;;6047412;29;20297;-82
2023/08/07 11:46:35;;;;;;;17.20;15.15;;;;;;;;;;6049475;29;20308;-82
2023/08/07 11:49:39;;;;;;;18.50;15.95;;;;;;;;;;6049856;29;20306;-83
2023/08/07 11:52:43;;;;;;;16.90;15.20;;;;;;;;;;6050324;29;20301;-82
2023/08/07 11:55:55;;;;;;;24.27;15.48;;;;;;;;;;6049852;29;20297;-81
2023/08/07 11:58:59;;;;;;;15.13;13.40;;;;;;;;;;6049794;29;20314;-82
2023/08/07 12:02:11;;;;;;;20.98;15.73;;;;;;;;;;6049986;29;20297;-81
2023/08/07 12:05:14;;;;;;;18.52;15.77;;;;;;;;;;6049492;29;20486;-83
2023/08/07 12:08:18;;;;;;;19.15;15.57;;;;;;;;;;6050333;29;20305;-83
2023/08/07 12:11:24;;;;;;;18.15;15.43;;;;;;;;;;6056685;29;20297;-82
2023/08/07 12:14:30;;;;;;;22.50;15.52;;;;;;;;;;6073517;29;20300;-82
2023/08/07 12:17:34;;;;;;;19.80;14.77;;;;;;;;;;6075186;29;20310;-82
2023/08/07 12:20:38;;;;;;;17.70;14.82;;;;;;;;;;6076016;29;20301;-82
2023/08/07 12:23:42;;;;;;;20.85;13.98;;;;;;;;;;6074003;29;20561;-82
2023/08/07 12:26:49;;;;;;;15.75;14.35;;;;;;;;;;6072095;29;20439;-82
2023/08/07 12:29:53;;;;;;;17.05;14.15;;;;;;;;;;6071071;29;20293;-82
2023/08/07 12:32:56;;;;;;;14.63;12.73;;;;;;;;;;6071311;29;20298;-83
2023/08/07 12:36:01;;;;;;;18.35;13.73;;;;;;;;;;6048521;29;20309;-83
2023/08/07 12:39:06;;;;;;;19.38;14.63;;;;;;;;;;6048517;29;20306;-83
2023/08/07 12:42:11;;;;;;;17.42;14.20;;;;;;;;;;6052343;29;20294;-83
2023/08/07 12:45:19;;;;;;;16.08;14.45;;;;;;;;;;6048629;29;20326;-83
2023/08/07 12:48:42;;;;;;;13.77;12.38;;;;;;;;;;6048263;29;20303;-83
2023/08/07 12:51:46;;;;;;;17.70;13.85;;;;;;;;;;6048861;29;20327;-83
2023/08/07 12:54:50;;;;;;;15.13;13.02;;;;;;;;;;6047878;29;20477;-82
2023/08/07 12:57:56;;;;;;;14.82;13.45;;;;;;;;;;6047500;29;20309;-82
2023/08/07 13:00:59;;;;;;;14.73;13.32;;;;;;;;;;6048435;29;20297;-82
2023/08/07 13:04:05;;;;;;;14.77;12.48;;;;;;;;;;6047999;29;20305;-82
2023/08/07 13:07:09;;;;;;;12.52;11.35;;;;;;;;;;6048302;29;20302;-83
2023/08/07 13:10:15;;;;;;;13.85;11.38;;;;;;;;;;6046832;29;20301;-82
2023/08/07 13:13:20;;;;;;;14.18;11.35;;;;;;;;;;6070718;29;20321;-82
2023/08/07 13:16:24;;;;;;;12.77;10.82;;;;;;;;;;6071124;29;20305;-82
2023/08/07 13:19:28;;;;;;;13.38;9.93;;;;;;;;;;6071189;29;20480;-83
2023/08/07 13:22:32;;;;;;;13.80;11.40;;;;;;;;;;6074459;29;20315;-83
2023/08/07 13:25:36;;;;;;;11.05;9.90;;;;;;;;;;6071160;29;20301;-83
2023/08/07 13:28:41;;;;;;;10.95;9.80;;;;;;;;;;6072391;29;20300;-82
2023/08/07 13:31:46;;;;;;;11.45;10.23;;;;;;;;;;6074317;29;20297;-83
2023/08/07 13:34:50;;;;;;;10.02;9.38;;;;;;;;;;6070887;29;20304;-82
2023/08/07 13:37:54;;;;;;;10.73;9.85;;;;;;;;;;6072254;29;20305;-82
2023/08/07 13:40:58;;;;;;;11.45;10.45;;;;;;;;;;6072646;29;20395;-82
2023/08/07 13:44:04;;;;;;;11.88;10.88;;;;;;;;;;6073143;29;20292;-83
2023/08/07 13:47:07;;;;;;;11.73;10.77;;;;;;;;;;6056744;29;20304;-82
2023/08/07 13:50:12;;;;;;;10.60;9.70;;;;;;;;;;6070401;29;20296;-82
2023/08/07 13:53:16;;;;;;;10.63;9.68;;;;;;;;;;6070344;29;20480;-82
2023/08/07 13:56:20;;;;;;;10.77;9.88;;;;;;;;;;6070206;29;20328;-81
2023/08/07 13:59:26;;;;;;;10.48;9.68;;;;;;;;;;6069662;29;20305;-83
2023/08/07 14:02:31;;;;;;;11.88;10.68;;;;;;;;;;6070537;29;20304;-81
2023/08/07 14:05:35;;;;;;;14.93;9.98;;;;;;;;;;6069010;29;20312;-81
2023/08/07 14:08:39;;;;;;;11.90;10.68;;;;;;;;;;6070366;29;20330;-81
2023/08/07 14:11:43;;;;;;;11.32;10.52;;;;;;;;;;6059952;29;20298;-82
2023/08/07 14:14:48;;;;;;;11.85;10.80;;;;;;;;;;6046751;29;20317;-82
2023/08/07 14:17:52;;;;;;;11.77;10.82;;;;;;;;;;6047343;29;20301;-82
2023/08/07 14:20:56;;;;;;;13.45;12.18;;;;;;;;;;6046814;29;20313;-82
2023/08/07 14:24:06;;;;;;;13.10;11.80;;;;;;;;;;6046637;29;20309;-81
2023/08/07 14:27:10;;;;;;;13.40;12.13;;;;;;;;;;6046977;29;20310;-81
2023/08/07 14:30:15;;;;;;;14.40;11.20;;;;;;;;;;6046590;29;20438;-81
2023/08/07 14:33:19;;;;;;;16.30;12.02;;;;;;;;;;6051148;29;20289;-81
2023/08/07 14:36:23;;;;;;;13.82;12.50;;;;;;;;;;6068111;29;20317;-81
2023/08/07 14:39:27;;;;;;;13.43;12.02;;;;;;;;;;6069403;29;20593;-81
2023/08/07 14:42:30;;;;;;;14.18;11.75;;;;;;;;;;6067284;29;20285;-81
2023/08/07 14:45:37;;;;;;;13.85;12.55;;;;;;;;;;6068838;29;20305;-81
2023/08/07 14:48:40;;;;;;;13.95;12.55;;;;;;;;;;6069614;29;20480;-81
2023/08/07 14:51:44;;;;;;;12.98;11.85;;;;;;;;;;6068526;29;20305;-82
2023/08/07 14:54:48;;;;;;;13.85;11.68;;;;;;;;;;6067592;29;20321;-82
2023/08/07 14:57:52;;;;;;;12.30;10.93;;;;;;;;;;6069801;29;20293;-82
2023/08/07 15:00:57;;;;;;;15.15;11.90;;;;;;;;;;6069450;29;20301;-82
2023/08/07 15:04:01;;;;;;;12.60;11.35;;;;;;;;;;6071414;29;20594;-81
2023/08/07 15:07:06;;;;;;;13.55;12.35;;;;;;;;;;6071095;29;20309;-81
2023/08/07 15:10:10;;;;;;;12.70;11.55;;;;;;;;;;6071899;29;20289;-81
2023/08/07 15:13:14;;;;;;;12.15;11.18;;;;;;;;;;6049368;29;20306;-82
2023/08/07 15:16:19;;;;;;;14.15;12.82;;;;;;;;;;6044173;29;20297;-81
2023/08/07 15:19:23;;;;;;;13.65;12.18;;;;;;;;;;6044156;29;20302;-81
2023/08/07 15:22:27;;;;;;;13.23;11.98;;;;;;;;;;6046597;29;20281;-81
2023/08/07 15:25:31;;;;;;;13.38;12.02;;;;;;;;;;6044089;29;20294;-82
2023/08/07 15:28:35;;;;;;;13.82;12.52;;;;;;;;;;6045707;29;20306;-82
2023/08/07 15:31:40;;;;;;;14.40;13.00;;;;;;;;;;6043968;29;20301;-82
2023/08/07 15:34:44;;;;;;;15.68;12.20;;;;;;;;;;6060351;29;20297;-82
2023/08/07 15:37:48;;;;;;;13.55;12.20;;;;;;;;;;6068511;29;20330;-81
2023/08/07 15:40:52;;;;;;;14.05;12.82;;;;;;;;;;6068618;29;20304;-80
2023/08/07 15:43:56;;;;;;;14.40;12.82;;;;;;;;;;6068232;29;20519;-82
2023/08/07 15:47:02;;;;;;;11.27;10.48;;;;;;;;;;6068591;29;20296;-81
2023/08/07 15:50:06;;;;;;;10.93;10.02;;;;;;;;;;6067986;29;20350;-81
2023/08/07 15:53:10;;;;;;;10.07;9.07;;;;;;;;;;6068673;29;20489;-82
2023/08/07 15:56:14;;;;;;;9.45;8.75;;;;;;;;;;6068749;29;20542;-81
2023/08/07 15:59:18;;;;;;;10.93;9.52;;;;;;;;;;6068653;29;20301;-80
2023/08/07 16:02:23;;;;;;;11.18;10.30;;;;;;;;;;6069218;29;20567;-82
2023/08/07 16:05:28;;;;;;;11.60;10.57;;;;;;;;;;6072306;29;20301;-82
2023/08/07 16:08:31;;;;;;;12.00;10.45;;;;;;;;;;6071648;29;20301;-81
2023/08/07 16:11:35;;;;;;;11.07;9.98;;;;;;;;;;6060027;29;20570;-80
2023/08/07 16:14:39;;;;;;;9.43;8.82;;;;;;;;;;6045080;29;20637;-80
2023/08/07 16:17:44;;;;;;;8.75;8.05;;;;;;;;;;6045084;29;20370;-81
2023/08/07 16:20:48;;;;;;;8.73;8.00;;;;;;;;;;6045118;29;20301;-82
2023/08/07 16:23:52;;;;;;;8.35;7.63;;;;;;;;;;6045273;29;20297;-80
2023/08/07 16:26:56;;;;;;;8.35;7.30;;;;;;;;;;6045605;29;20314;-81
2023/08/07 16:30:04;;;;;;;7.90;7.30;;;;;;;;;;6048009;29;20310;-82
2023/08/07 16:33:09;;;;;;;7.78;7.25;;;;;;;;;;6053494;29;20742;-81
2023/08/07 16:36:13;;;;;;;7.03;6.38;;;;;;;;;;6073639;29;20443;-82
2023/08/07 16:39:17;;;;;;;6.55;6.00;;;;;;;;;;6072150;29;20292;-80
2023/08/07 16:42:21;;;;;;;6.88;6.03;;;;;;;;;;6072245;29;20320;-81
2023/08/07 16:45:26;;;;;;;6.65;6.05;;;;;;;;;;6061077;29;20396;-80
2023/08/07 16:48:31;;;;;;;5.93;5.72;;;;;;;;;;6071194;29;20297;-80
2023/08/07 16:51:35;;;;;;;6.32;5.68;;;;;;;;;;6070199;29;20454;-81
2023/08/07 16:54:38;;;;;;;6.03;5.72;;;;;;;;;;6070034;29;20300;-80
2023/08/07 16:57:42;;;;;;;5.68;5.47;;;;;;;;;;6071326;29;20246;-80
2023/08/07 17:00:46;;;;;;;6.60;5.85;;;;;;;;;;6071210;29;20489;-80
2023/08/07 17:03:51;;;;;;;6.40;5.80;;;;;;;;;;6070844;29;20297;-81
2023/08/07 17:06:58;;;;;;;6.50;6.10;;;;;;;;;;6072653;29;20293;-80
2023/08/07 17:10:02;;;;;;;6.90;6.20;;;;;;;;;;6072895;29;20305;-81
2023/08/07 17:13:06;;;;;;;5.50;5.20;;;;;;;;;;6049765;29;20468;-81
2023/08/07 17:16:10;;;;;;;5.53;5.13;;;;;;;;;;6047615;29;20317;-81
2023/08/07 17:19:15;;;;;;;5.65;5.32;;;;;;;;;;6047650;29;20305;-81
2023/08/07 17:22:19;;;;;;;6.13;5.68;;;;;;;;;;6048462;29;20301;-81
2023/08/07 17:25:23;;;;;;;7.38;6.75;;;;;;;;;;6046778;29;20484;-81
2023/08/07 17:28:27;;;;;;;6.03;5.22;;;;;;;;;;6049328;29;20302;-80
2023/08/07 17:31:31;;;;;;;5.57;5.28;;;;;;;;;;6047346;29;20297;-81
2023/08/07 17:34:36;;;;;;;5.78;5.50;;;;;;;;;;6061305;29;20305;-81
2023/08/07 17:37:40;;;;;;;4.18;3.92;;;;;;;;;;6070573;29;20309;-80
2023/08/07 17:40:44;;;;;;;4.43;4.07;;;;;;;;;;6069284;29;20297;-80
2023/08/07 17:43:48;;;;;;;4.82;4.40;;;;;;;;;;6070726;29;20296;-80
2023/08/07 17:46:52;;;;;;;4.20;3.97;;;;;;;;;;6069042;29;20301;-80
2023/08/07 17:49:57;;;;;;;4.32;3.95;;;;;;;;;;6070544;29;20322;-80
2023/08/07 17:53:01;;;;;;;4.93;4.03;;;;;;;;;;6071643;29;20305;-80
2023/08/07 17:56:05;;;;;;;4.60;4.20;;;;;;;;;;6071422;29;20296;-80
2023/08/07 17:59:09;;;;;;;5.30;4.60;;;;;;;;;;6072116;29;20425;-80